Time;durP1;ratioP1;P1;durP2;ratioP2;P2;SDS_P1;SDS_P2;PMS_P1;PMS_P2;Temp;Humidity;BMP_temperature;BMP_pressure;BME280_temperature;BME280_humidity;BME280_pressure;Samples;Min_cycle;Max_cycle;Signal;HPM_P1;HPM_P2
2021/03/12 00:01:22;;;;;;;10.90;9.30;;;;;;;-1.89;100.00;93854.56;5014256;28;20203;-92
2021/03/12 00:03:49;;;;;;;10.63;7.87;;;;;;;-1.88;100.00;93844.13;5014339;28;20669;-91
2021/03/12 00:06:17;;;;;;;14.60;10.00;;;;;;;-1.88;100.00;93838.97;5014242;28;20202;-92
2021/03/12 00:08:46;;;;;;;33.97;19.07;;;;;;;-2.07;100.00;93836.50;5014287;28;20763;-91
2021/03/12 00:11:14;;;;;;;36.63;20.73;;;;;;;-2.22;100.00;93812.97;5014705;28;20286;-92
2021/03/12 00:13:41;;;;;;;42.63;21.90;;;;;;;-2.23;100.00;93817.31;5014198;28;20195;-92
2021/03/12 00:16:09;;;;;;;59.73;27.37;;;;;;;-2.31;100.00;93824.13;5013922;28;20206;-93
2021/03/12 00:18:38;;;;;;;50.70;26.17;;;;;;;-2.29;100.00;93833.28;5013988;28;20203;-93
2021/03/12 00:21:07;;;;;;;26.10;16.80;;;;;;;-2.27;100.00;93818.53;5013908;28;20196;-93
2021/03/12 00:23:34;;;;;;;10.83;8.70;;;;;;;-2.23;100.00;93809.59;5014272;28;20206;-90
2021/03/12 00:26:03;;;;;;;12.23;8.03;;;;;;;-2.07;100.00;93787.59;5014008;28;20207;-93
2021/03/12 00:28:30;;;;;;;9.47;7.97;;;;;;;-2.04;100.00;93784.75;5013844;28;20199;-92
2021/03/12 00:30:57;;;;;;;9.97;8.83;;;;;;;-1.97;100.00;93783.22;5014066;28;20195;-91
2021/03/12 00:33:26;;;;;;;11.20;8.20;;;;;;;-1.99;100.00;93800.56;5013821;28;20203;-91
2021/03/12 00:35:53;;;;;;;14.10;8.63;;;;;;;-1.96;100.00;93815.72;5013494;28;20199;-92
2021/03/12 00:38:20;;;;;;;14.77;11.03;;;;;;;-2.00;100.00;93827.25;5013639;28;20199;-93
2021/03/12 00:40:50;;;;;;;23.90;16.73;;;;;;;-2.10;100.00;93826.47;5013630;28;20231;-91
2021/03/12 00:43:18;;;;;;;14.20;12.10;;;;;;;-2.13;100.00;93839.63;5013744;28;20206;-92
2021/03/12 00:45:47;;;;;;;11.87;8.60;;;;;;;-2.16;100.00;93831.22;5013630;28;20687;-89
2021/03/12 00:48:14;;;;;;;8.67;7.20;;;;;;;-2.06;100.00;93826.03;5013745;28;20595;-90
2021/03/12 00:50:43;;;;;;;11.13;8.07;;;;;;;-2.14;100.00;93825.97;5013392;28;20196;-90
2021/03/12 00:53:11;;;;;;;11.53;8.67;;;;;;;-2.25;100.00;93811.50;5013753;28;20690;-93
2021/03/12 00:55:39;;;;;;;7.50;6.67;;;;;;;-2.35;100.00;93785.00;5013416;28;20203;-93
2021/03/12 00:58:06;;;;;;;8.30;6.93;;;;;;;-2.43;100.00;93751.44;5013196;28;20231;-92
2021/03/12 01:00:37;;;;;;;9.20;7.23;;;;;;;-2.31;100.00;93732.31;5013314;28;20203;-93
2021/03/12 01:03:04;;;;;;;9.23;6.73;;;;;;;-2.28;100.00;93729.47;5013582;28;20195;-92
2021/03/12 01:05:31;;;;;;;10.33;8.07;;;;;;;-2.22;100.00;93767.50;5013184;28;20196;-93
2021/03/12 01:07:59;;;;;;;8.50;6.37;;;;;;;-2.21;100.00;93786.31;5013492;28;20199;-92
2021/03/12 01:10:27;;;;;;;8.77;6.77;;;;;;;-2.16;100.00;93769.47;5013205;28;20199;-93
2021/03/12 01:12:55;;;;;;;8.40;6.67;;;;;;;-2.14;100.00;93782.22;5013354;28;20230;-93
2021/03/12 01:15:24;;;;;;;7.93;6.73;;;;;;;-2.11;100.00;93794.78;5013269;28;20195;-93
2021/03/12 01:17:53;;;;;;;8.00;6.60;;;;;;;-2.04;100.00;93802.75;5013082;28;20230;-94
2021/03/12 01:20:22;;;;;;;14.10;7.67;;;;;;;-2.14;100.00;93838.00;5013086;28;20200;-92
2021/03/12 01:22:50;;;;;;;9.30;7.53;;;;;;;-2.17;100.00;93847.63;5013366;28;20559;-93
2021/03/12 01:25:20;;;;;;;9.20;7.00;;;;;;;-2.30;100.00;93841.97;5013124;28;20656;-94
2021/03/12 01:27:48;;;;;;;8.07;6.93;;;;;;;-2.33;100.00;93836.31;5013252;28;20195;-93
2021/03/12 01:30:18;;;;;;;10.83;7.23;;;;;;;-2.35;100.00;93830.50;5013028;28;20202;-95
2021/03/12 01:32:46;;;;;;;14.07;6.27;;;;;;;-2.45;100.00;93833.09;5013076;28;20180;-93
2021/03/12 01:35:15;;;;;;;9.47;7.20;;;;;;;-2.34;100.00;93821.81;5012888;28;20199;-93
2021/03/12 01:37:42;;;;;;;9.03;6.47;;;;;;;-2.53;100.00;93840.69;5012787;28;20313;-91
2021/03/12 01:40:13;;;;;;;11.37;7.73;;;;;;;-2.42;100.00;93846.50;5012699;28;20733;-93
2021/03/12 01:42:41;;;;;;;9.97;7.30;;;;;;;-2.44;100.00;93865.56;5013178;28;20219;-93
2021/03/12 01:45:10;;;;;;;7.50;6.60;;;;;;;-2.44;100.00;93874.09;5013021;28;20310;-93
2021/03/12 01:47:38;;;;;;;10.30;8.47;;;;;;;-2.48;100.00;93893.34;5013170;28;20199;-92
2021/03/12 01:50:06;;;;;;;11.53;9.57;;;;;;;-2.34;100.00;93878.44;5012757;28;20199;-93
2021/03/12 01:52:35;;;;;;;12.10;8.57;;;;;;;-2.30;100.00;93884.91;5015867;28;20195;-92
2021/03/12 01:55:03;;;;;;;11.80;8.17;;;;;;;-2.29;100.00;93901.97;5016652;28;20195;-92
2021/03/12 01:57:30;;;;;;;8.77;7.27;;;;;;;-2.35;100.00;93915.41;5016493;28;20274;-91
2021/03/12 01:59:57;;;;;;;7.63;6.43;;;;;;;-2.37;100.00;93907.00;5016445;28;20203;-92
2021/03/12 02:02:24;;;;;;;6.57;5.90;;;;;;;-2.38;100.00;93889.94;5016562;28;20199;-91
2021/03/12 02:04:51;;;;;;;7.73;6.30;;;;;;;-2.38;100.00;93893.31;5016576;28;20322;-93
2021/03/12 02:07:18;;;;;;;7.40;6.57;;;;;;;-2.36;100.00;93862.31;5016606;28;20199;-94
2021/03/12 02:09:46;;;;;;;6.63;5.97;;;;;;;-2.41;100.00;93852.44;5016494;28;20211;-94
2021/03/12 02:12:18;;;;;;;9.00;6.03;;;;;;;-2.47;100.00;93840.94;5016536;28;20196;-93
2021/03/12 02:14:59;;;;;;;9.47;6.37;;;;;;;-2.30;100.00;93830.88;5016956;28;20250;-93
2021/03/12 02:17:31;;;;;;;7.60;6.30;;;;;;;-2.49;100.00;93827.44;5016433;28;20210;-91
2021/03/12 02:20:19;;;;;;;6.47;5.70;;;;;;;-2.41;100.00;93806.13;5016233;28;20695;-90
2021/03/12 02:22:51;;;;;;;7.50;6.17;;;;;;;-2.40;100.00;93782.84;5016092;28;20226;-93
2021/03/12 02:25:21;;;;;;;9.17;6.60;;;;;;;-2.43;100.00;93769.44;5016212;28;20183;-91
2021/03/12 02:27:49;;;;;;;7.27;6.50;;;;;;;-2.34;100.00;93750.59;5016365;28;20602;-93
2021/03/12 02:30:17;;;;;;;8.90;6.47;;;;;;;-2.22;100.00;93767.50;5015833;28;20235;-92
2021/03/12 02:32:48;;;;;;;7.70;6.10;;;;;;;-2.17;100.00;93811.59;5016025;28;20199;-93
2021/03/12 02:35:17;;;;;;;8.57;6.43;;;;;;;-2.35;100.00;93843.38;5016269;28;20188;-91
2021/03/12 02:37:45;;;;;;;10.40;6.33;;;;;;;-2.43;100.00;93860.28;5016150;28;20644;-94
2021/03/12 02:40:13;;;;;;;7.57;6.03;;;;;;;-2.66;100.00;93864.94;5015638;28;20244;-93
2021/03/12 02:42:42;;;;;;;6.93;5.80;;;;;;;-2.60;100.00;93843.00;5015743;28;20199;-93
2021/03/12 02:45:12;;;;;;;7.67;6.53;;;;;;;-2.47;100.00;93827.28;5016698;28;20722;-91
2021/03/12 02:47:40;;;;;;;9.40;6.63;;;;;;;-2.57;100.00;93798.19;5015853;28;20194;-92
2021/03/12 02:50:09;;;;;;;7.30;5.57;;;;;;;-2.70;100.00;93786.47;5015905;28;20200;-90
2021/03/12 02:52:37;;;;;;;10.77;8.07;;;;;;;-2.79;100.00;93776.19;5015551;28;20198;-93
2021/03/12 02:55:06;;;;;;;9.17;7.33;;;;;;;-3.06;100.00;93761.50;5015534;28;20254;-93
2021/03/12 02:57:33;;;;;;;8.93;7.97;;;;;;;-3.23;100.00;93743.25;5015543;28;20223;-93
2021/03/12 03:00:00;;;;;;;12.37;7.17;;;;;;;-3.30;100.00;93726.78;5015602;28;20206;-93
2021/03/12 03:02:29;;;;;;;9.77;8.33;;;;;;;-3.28;100.00;93709.47;5015097;28;20200;-92
2021/03/12 03:04:58;;;;;;;11.63;8.43;;;;;;;-3.04;100.00;93678.19;5015011;28;20241;-93
2021/03/12 03:07:26;;;;;;;9.37;7.53;;;;;;;-3.22;100.00;93674.72;5015711;28;20605;-93
2021/03/12 03:09:54;;;;;;;11.40;7.60;;;;;;;-3.48;100.00;93684.78;5015528;28;20200;-92
2021/03/12 03:12:23;;;;;;;9.07;6.63;;;;;;;-3.29;100.00;93664.22;5015185;28;20239;-93
2021/03/12 03:14:56;;;;;;;9.43;7.17;;;;;;;-3.13;100.00;93671.31;5015190;28;20203;-93
2021/03/12 03:17:24;;;;;;;9.17;7.07;;;;;;;-3.35;100.00;93688.69;5015178;28;20208;-93
2021/03/12 03:19:53;;;;;;;10.27;7.37;;;;;;;-3.32;100.00;93681.66;5015217;28;20191;-92
2021/03/12 03:22:21;;;;;;;8.57;7.37;;;;;;;-3.26;100.00;93665.66;5015702;28;20192;-95
2021/03/12 03:24:48;;;;;;;9.30;6.83;;;;;;;-3.19;100.00;93646.19;5015177;28;20241;-94
2021/03/12 03:27:16;;;;;;;8.37;6.37;;;;;;;-3.12;100.00;93627.50;5015300;28;20203;-93
2021/03/12 03:29:44;;;;;;;7.47;5.97;;;;;;;-3.40;100.00;93664.34;5014848;28;20203;-93
2021/03/12 03:32:10;;;;;;;8.60;7.20;;;;;;;-3.57;100.00;93673.56;5014871;28;20291;-93
2021/03/12 03:34:37;;;;;;;8.97;7.43;;;;;;;-3.56;100.00;93676.97;5014855;28;20203;-93
2021/03/12 03:37:05;;;;;;;9.60;7.17;;;;;;;-3.38;100.00;93653.00;5014877;28;20703;-95
2021/03/12 03:39:32;;;;;;;9.03;6.53;;;;;;;-3.43;100.00;93639.78;5014447;28;20195;-93
2021/03/12 03:42:03;;;;;;;10.43;6.73;;;;;;;-3.28;100.00;93623.91;5015080;28;20203;-95
2021/03/12 03:44:34;;;;;;;8.43;7.10;;;;;;;-3.42;100.00;93620.03;5014663;28;20187;-94
2021/03/12 03:47:03;;;;;;;12.10;8.50;;;;;;;-3.52;100.00;93630.31;5014762;28;20191;-95
2021/03/12 03:49:34;;;;;;;11.17;8.57;;;;;;;-3.57;100.00;93635.03;5014551;28;20254;-95
2021/03/12 03:52:03;;;;;;;9.33;7.17;;;;;;;-3.16;100.00;93622.78;5014619;28;20191;-95
2021/03/12 03:54:31;;;;;;;10.60;9.03;;;;;;;-3.17;100.00;93627.13;5014585;28;20204;-95
2021/03/12 03:56:59;;;;;;;10.67;8.43;;;;;;;-3.03;100.00;93619.91;5014566;28;20270;-94
2021/03/12 03:59:27;;;;;;;8.67;6.63;;;;;;;-3.29;100.00;93640.25;5014590;28;20202;-94
2021/03/12 04:01:55;;;;;;;72.43;35.33;;;;;;;-3.15;100.00;93621.84;5014422;28;20290;-92
2021/03/12 04:04:22;;;;;;;49.17;25.03;;;;;;;-3.35;100.00;93634.75;5014519;28;20290;-94
2021/03/12 04:06:49;;;;;;;10.37;7.80;;;;;;;-3.38;100.00;93636.78;5014350;28;20206;-93
2021/03/12 04:09:16;;;;;;;6.93;5.87;;;;;;;-3.34;100.00;93625.28;5014136;28;20203;-92
2021/03/12 04:11:45;;;;;;;8.77;7.17;;;;;;;-3.36;100.00;93601.47;5014558;28;20200;-92
2021/03/12 04:14:13;;;;;;;23.63;12.00;;;;;;;-3.41;100.00;93593.41;5014064;28;20187;-92
2021/03/12 04:16:41;;;;;;;17.17;11.40;;;;;;;-3.28;100.00;93578.50;5014116;28;20318;-94
2021/03/12 04:19:09;;;;;;;16.03;8.70;;;;;;;-3.32;100.00;93564.31;5013974;28;20286;-93
2021/03/12 04:21:47;;;;;;;;;;;;;;;;;;;;;
2021/03/12 04:24:48;;;;;;;;;;;;;;;;;;;;;
2021/03/12 04:27:17;;;;;;;12.77;8.30;;;;;;;-3.32;100.00;93527.56;4993650;28;20287;-92
2021/03/12 04:29:44;;;;;;;9.37;8.10;;;;;;;-3.35;100.00;93542.28;5014124;28;20238;-94
2021/03/12 04:32:12;;;;;;;9.83;7.73;;;;;;;-3.30;100.00;93534.13;5014075;28;20270;-95
2021/03/12 04:34:38;;;;;;;33.57;19.23;;;;;;;-3.34;100.00;93525.09;5014091;28;20195;-92
2021/03/12 04:37:06;;;;;;;42.97;27.63;;;;;;;-3.43;100.00;93547.31;5013868;28;20227;-93
2021/03/12 04:39:34;;;;;;;77.10;42.13;;;;;;;-3.42;100.00;93543.00;5013843;28;20196;-92
2021/03/12 04:42:01;;;;;;;30.73;19.23;;;;;;;-3.46;100.00;93532.19;5013700;28;20192;-94
2021/03/12 04:44:29;;;;;;;19.00;12.63;;;;;;;-3.42;100.00;93512.19;5013601;28;20291;-92
2021/03/12 04:46:57;;;;;;;14.60;9.40;;;;;;;-3.49;100.00;93511.13;5013868;28;20278;-94
2021/03/12 04:49:25;;;;;;;12.70;9.60;;;;;;;-3.61;100.00;93488.19;5013564;28;20199;-93
2021/03/12 04:51:52;;;;;;;18.03;12.17;;;;;;;-3.48;100.00;93448.53;5013546;28;20238;-92
2021/03/12 04:54:20;;;;;;;21.47;12.37;;;;;;;-3.28;100.00;93421.81;5013466;28;20199;-92
2021/03/12 04:56:47;;;;;;;50.20;31.30;;;;;;;-3.33;100.00;93434.25;5013911;28;20219;-93
2021/03/12 04:59:15;;;;;;;39.40;25.63;;;;;;;-3.60;100.00;93466.72;5014151;28;20203;-91
2021/03/12 05:01:43;;;;;;;52.63;28.80;;;;;;;-3.85;100.00;93487.88;5013474;28;20195;-93
2021/03/12 05:04:12;;;;;;;54.93;31.47;;;;;;;-3.67;100.00;93452.84;5011943;28;20211;-88
2021/03/12 05:06:43;;;;;;;30.07;18.47;;;;;;;-3.68;100.00;93427.28;5006179;28;20215;-88
2021/03/12 05:09:10;;;;;;;18.20;14.97;;;;;;;-3.93;100.00;93421.06;4996490;28;20203;-87
2021/03/12 05:11:37;;;;;;;32.80;19.50;;;;;;;-4.18;100.00;93395.09;4993617;28;20211;-86
2021/03/12 05:14:04;;;;;;;34.90;19.83;;;;;;;-4.09;100.00;93362.66;4993888;28;20240;-90
2021/03/12 05:16:31;;;;;;;29.13;19.67;;;;;;;-4.22;100.00;93347.59;4993426;28;20291;-90
2021/03/12 05:18:58;;;;;;;30.00;17.33;;;;;;;-4.10;100.00;93313.09;4993411;28;20208;-90
2021/03/12 05:21:25;;;;;;;15.77;11.63;;;;;;;-3.71;100.00;93261.53;4993594;28;20236;-91
2021/03/12 05:23:52;;;;;;;16.40;12.70;;;;;;;-3.60;100.00;93263.13;4993403;28;20207;-93
2021/03/12 05:26:19;;;;;;;19.23;13.23;;;;;;;-3.83;100.00;93308.91;4992584;28;20242;-92
2021/03/12 05:28:46;;;;;;;17.70;13.20;;;;;;;-3.91;100.00;93335.31;4993673;28;20200;-91
2021/03/12 05:31:13;;;;;;;21.33;15.50;;;;;;;-3.74;100.00;93332.88;4993770;28;20251;-91
2021/03/12 05:33:39;;;;;;;19.63;15.43;;;;;;;-3.48;100.00;93317.59;4993920;28;20287;-91
2021/03/12 05:36:07;;;;;;;23.60;15.60;;;;;;;-3.37;100.00;93310.47;4994681;28;20287;-92
2021/03/12 05:38:34;;;;;;;24.63;14.63;;;;;;;-3.30;100.00;93335.56;4993698;28;20315;-90
2021/03/12 05:41:02;;;;;;;31.40;21.70;;;;;;;-3.32;100.00;93353.72;4993957;28;20327;-91
2021/03/12 05:43:29;;;;;;;37.20;26.80;;;;;;;-3.08;100.00;93324.88;4994260;28;20236;-92
2021/03/12 05:45:59;;;;;;;20.30;15.83;;;;;;;-3.01;100.00;93325.88;4994010;28;20291;-91
2021/03/12 05:48:27;;;;;;;23.27;15.97;;;;;;;-2.94;100.00;93336.38;4994423;28;20227;-91
2021/03/12 05:50:57;;;;;;;21.73;15.70;;;;;;;-3.12;100.00;93356.91;4994026;28;20206;-92
2021/03/12 05:53:25;;;;;;;22.00;16.70;;;;;;;-3.20;100.00;93346.59;4994003;28;20685;-93
2021/03/12 05:55:52;;;;;;;23.30;16.13;;;;;;;-3.16;100.00;93333.28;4993828;28;20208;-92
2021/03/12 05:58:19;;;;;;;20.50;15.13;;;;;;;-2.94;100.00;93315.81;4993642;28;20231;-93
2021/03/12 06:00:46;;;;;;;20.80;15.87;;;;;;;-2.91;100.00;93320.63;4994346;28;20204;-92
2021/03/12 06:03:14;;;;;;;27.63;17.87;;;;;;;-2.84;100.00;93336.25;4993576;28;20288;-94
2021/03/12 06:05:43;;;;;;;23.10;17.63;;;;;;;-2.74;100.00;93322.38;4993777;28;20648;-91
2021/03/12 06:08:10;;;;;;;31.63;17.47;;;;;;;-2.50;100.00;93302.91;4993946;28;20209;-91
2021/03/12 06:10:38;;;;;;;24.67;18.93;;;;;;;-2.74;100.00;93337.78;4993099;28;20683;-91
2021/03/12 06:13:05;;;;;;;22.07;15.83;;;;;;;-3.08;100.00;93386.53;4993734;28;20265;-93
2021/03/12 06:15:34;;;;;;;23.90;15.03;;;;;;;-3.07;100.00;93379.63;4993489;28;20200;-91
2021/03/12 06:18:13;;;;;;;24.77;16.60;;;;;;;-2.97;100.00;93352.09;4994029;28;20283;-91
2021/03/12 06:20:41;;;;;;;23.63;17.03;;;;;;;-2.74;100.00;93326.69;4993927;28;20271;-93
2021/03/12 06:23:08;;;;;;;24.80;18.17;;;;;;;-2.56;100.00;93298.38;4994196;28;20230;-92
2021/03/12 06:25:35;;;;;;;20.17;16.33;;;;;;;-2.27;100.00;93300.63;4993785;28;20200;-92
2021/03/12 06:28:16;;;;;;;21.13;16.37;;;;;;;-2.64;100.00;93342.84;4993609;28;20196;-93
2021/03/12 06:30:43;;;;;;;20.30;15.40;;;;;;;-2.69;100.00;93343.28;4993733;28;20184;-92
2021/03/12 06:33:26;;;;;;;21.97;16.97;;;;;;;-2.50;100.00;93328.63;4993525;28;20196;-93
2021/03/12 06:35:53;;;;;;;26.07;18.57;;;;;;;-2.55;100.00;93330.84;4993714;28;20223;-93
2021/03/12 06:38:20;;;;;;;22.20;17.07;;;;;;;-2.25;100.00;93314.13;4995979;28;20239;-94
2021/03/12 06:40:47;;;;;;;25.97;18.20;;;;;;;-1.96;100.00;93316.34;4996806;28;20232;-94
2021/03/12 06:43:16;;;;;;;20.00;15.07;;;;;;;-1.89;100.00;93368.03;4996636;28;20576;-93
2021/03/12 06:45:59;;;;;;;17.07;13.37;;;;;;;-2.08;100.00;93421.31;4996629;28;20283;-93
2021/03/12 06:48:28;;;;;;;12.57;9.67;;;;;;;-2.10;100.00;93418.09;4996509;28;20220;-93
2021/03/12 06:50:57;;;;;;;21.83;12.03;;;;;;;-1.84;100.00;93384.59;4996402;28;20286;-93
2021/03/12 06:53:29;;;;;;;13.13;10.87;;;;;;;-1.94;100.00;93410.47;4996738;28;20557;-92
2021/03/12 06:55:57;;;;;;;12.37;9.33;;;;;;;-2.03;100.00;93439.69;4996342;28;20212;-92
2021/03/12 06:58:25;;;;;;;14.27;11.83;;;;;;;-1.60;100.00;93414.00;4996243;28;20692;-93
2021/03/12 07:00:52;;;;;;;13.27;9.97;;;;;;;-1.46;100.00;93447.69;4996224;28;20283;-94
2021/03/12 07:03:24;;;;;;;12.20;9.77;;;;;;;-1.50;100.00;93559.72;4996120;28;20224;-95
2021/03/12 07:06:06;;;;;;;12.67;10.80;;;;;;;-1.55;100.00;93613.50;4996699;28;20208;-95
2021/03/12 07:08:38;;;;;;;11.17;7.67;;;;;;;-1.57;100.00;93686.72;4996766;28;20189;-96
2021/03/12 07:11:19;;;;;;;14.57;9.60;;;;;;;-1.41;100.00;93759.00;4996052;28;20188;-96
2021/03/12 07:13:47;;;;;;;11.73;8.90;;;;;;;-1.36;100.00;93848.72;4995728;28;20254;-96
2021/03/12 07:16:14;;;;;;;25.23;13.43;;;;;;;-1.23;100.00;93909.25;4997408;28;20216;-94
2021/03/12 07:18:42;;;;;;;12.30;9.13;;;;;;;-1.05;100.00;93914.44;4996121;28;20224;-96
2021/03/12 07:21:09;;;;;;;11.80;8.80;;;;;;;-1.15;100.00;93938.66;4996017;28;20203;-95
2021/03/12 07:23:38;;;;;;;8.13;7.30;;;;;;;-0.88;100.00;93941.19;4996110;28;20565;-94
2021/03/12 07:26:09;;;;;;;7.70;6.77;;;;;;;-0.67;100.00;93978.78;4996098;28;20208;-94
2021/03/12 07:28:36;;;;;;;8.33;7.43;;;;;;;-0.88;100.00;94048.69;4996695;28;20188;-94
2021/03/12 07:31:05;;;;;;;9.57;7.07;;;;;;;-1.04;100.00;94063.03;4996152;28;20201;-93
2021/03/12 07:33:36;;;;;;;7.10;6.40;;;;;;;-1.00;100.00;94056.63;4995838;28;20200;-93
2021/03/12 07:36:05;;;;;;;9.37;8.10;;;;;;;-0.68;100.00;94052.00;4995470;28;20188;-92
2021/03/12 07:38:35;;;;;;;10.53;9.13;;;;;;;-0.85;100.00;94100.00;4996104;28;20231;-93
2021/03/12 07:41:04;;;;;;;7.77;6.43;;;;;;;-0.86;100.00;94135.28;4995638;28;20240;-92
2021/03/12 07:43:35;;;;;;;10.73;7.37;;;;;;;-0.97;100.00;94163.81;4995515;28;20226;-92
2021/03/12 07:46:03;;;;;;;10.77;7.63;;;;;;;-0.74;100.00;94179.75;4995291;28;20188;-92
2021/03/12 07:48:32;;;;;;;8.80;7.07;;;;;;;-0.43;100.00;94180.31;4995199;28;20684;-92
2021/03/12 07:51:09;;;;;;;8.23;6.53;;;;;;;-0.16;100.00;94183.88;4995238;28;20205;-91
2021/03/12 07:53:47;;;;;;;6.70;6.10;;;;;;;-0.15;100.00;94278.44;4995340;28;20300;-91
2021/03/12 07:56:15;;;;;;;8.60;7.13;;;;;;;0.02;100.00;94307.84;4995322;28;20204;-91
2021/03/12 07:58:54;;;;;;;8.93;6.27;;;;;;;-0.12;100.00;94312.53;4995019;28;20652;-90
2021/03/12 08:01:22;;;;;;;9.63;6.63;;;;;;;-0.19;100.00;94300.31;4994919;28;20212;-90
2021/03/12 08:03:51;;;;;;;9.00;6.47;;;;;;;0.29;100.00;94257.97;4994729;28;20196;-89
2021/03/12 08:06:36;;;;;;;11.17;7.37;;;;;;;0.13;100.00;94287.00;4994691;28;20287;-90
2021/03/12 08:09:31;;;;;;;9.50;6.90;;;;;;;0.03;100.00;94325.78;4995036;28;20592;-89
2021/03/12 08:11:58;;;;;;;8.40;7.57;;;;;;;0.31;100.00;94274.13;4994584;28;20192;-89
2021/03/12 08:14:25;;;;;;;7.00;5.80;;;;;;;0.32;100.00;94276.56;4994852;28;20196;-89
2021/03/12 08:17:18;;;;;;;8.23;6.87;;;;;;;0.64;100.00;94275.28;4994507;28;20204;-89
2021/03/12 08:19:50;;;;;;;8.27;7.30;;;;;;;0.93;100.00;94286.19;4995386;28;20204;-89
2021/03/12 08:22:45;;;;;;;7.80;6.70;;;;;;;0.73;100.00;94305.44;4994570;28;20207;-89
2021/03/12 08:25:13;;;;;;;13.80;7.27;;;;;;;0.94;100.00;94293.03;4994401;28;20291;-89
2021/03/12 08:27:42;;;;;;;9.40;6.87;;;;;;;1.32;100.00;94239.31;4994300;28;20246;-90
2021/03/12 08:30:12;;;;;;;8.27;6.57;;;;;;;1.19;100.00;94275.91;4994366;28;20210;-89
2021/03/12 08:32:43;;;;;;;9.07;7.40;;;;;;;1.28;100.00;94237.16;4994611;28;20203;-89
2021/03/12 08:35:40;;;;;;;11.03;6.63;;;;;;;1.40;100.00;94238.53;4994400;28;20208;-91
2021/03/12 08:38:38;;;;;;;10.17;7.93;;;;;;;1.11;100.00;94260.34;4994318;28;20231;-91
2021/03/12 08:41:08;;;;;;;9.10;6.67;;;;;;;1.33;100.00;94251.28;4994241;28;20232;-91
2021/03/12 08:43:41;;;;;;;9.33;8.37;;;;;;;1.64;100.00;94191.25;4994323;28;20198;-90
2021/03/12 08:46:14;;;;;;;8.17;6.87;;;;;;;1.93;100.00;94209.00;4994334;28;20238;-90
2021/03/12 08:48:42;;;;;;;8.53;7.03;;;;;;;1.99;100.00;94246.44;4994265;28;20195;-91
2021/03/12 08:51:13;;;;;;;10.43;6.63;;;;;;;2.09;100.00;94221.22;4994041;28;20232;-92
2021/03/12 08:53:45;;;;;;;7.40;6.70;;;;;;;2.21;100.00;94214.78;4994496;28;20713;-91
2021/03/12 08:56:12;;;;;;;9.00;6.90;;;;;;;2.27;100.00;94218.53;4994024;28;20208;-91
2021/03/12 08:58:40;;;;;;;7.37;6.57;;;;;;;2.32;100.00;94179.97;4993700;28;20228;-91
2021/03/12 09:01:11;;;;;;;8.60;7.00;;;;;;;2.44;100.00;94155.38;4994298;28;20196;-92
2021/03/12 09:03:38;;;;;;;9.20;8.20;;;;;;;2.70;100.00;94151.78;4993709;28;20292;-91
2021/03/12 09:06:07;;;;;;;8.77;7.70;;;;;;;2.72;100.00;94207.75;4993820;28;20193;-91
2021/03/12 09:08:37;;;;;;;14.70;7.53;;;;;;;3.06;100.00;94178.22;4993741;28;20692;-92
2021/03/12 09:11:06;;;;;;;8.40;7.20;;;;;;;3.27;100.00;94181.13;4993834;28;20224;-92
2021/03/12 09:13:36;;;;;;;10.67;8.47;;;;;;;3.17;100.00;94227.19;4993775;28;20192;-90
2021/03/12 09:16:03;;;;;;;6.70;6.03;;;;;;;3.03;100.00;94262.41;4994800;28;20200;-89
2021/03/12 09:18:31;;;;;;;7.27;6.57;;;;;;;2.64;100.00;94292.53;4993872;28;20282;-90
2021/03/12 09:21:00;;;;;;;6.67;6.03;;;;;;;2.69;100.00;94324.78;4993582;28;20204;-90
2021/03/12 09:23:39;;;;;;;7.73;6.93;;;;;;;3.21;100.00;94274.41;4993488;28;20279;-90
2021/03/12 09:26:07;;;;;;;8.20;7.40;;;;;;;3.43;100.00;94291.94;4993680;28;20243;-91
2021/03/12 09:28:35;;;;;;;10.10;8.97;;;;;;;3.62;100.00;94365.31;4993646;28;20275;-91
2021/03/12 09:31:03;;;;;;;8.80;7.90;;;;;;;3.75;100.00;94350.03;4993735;28;20599;-91
2021/03/12 09:33:33;;;;;;;8.37;7.53;;;;;;;3.32;100.00;94393.53;4993763;28;20624;-90
2021/03/12 09:36:01;;;;;;;7.90;7.10;;;;;;;3.64;100.00;94404.91;4993642;28;20298;-89
2021/03/12 09:38:37;;;;;;;11.00;9.23;;;;;;;3.28;100.00;94400.81;4993252;28;20224;-90
2021/03/12 09:41:15;;;;;;;14.47;11.20;;;;;;;3.48;100.00;94330.41;4993538;28;20228;-91
2021/03/12 09:43:43;;;;;;;17.63;13.83;;;;;;;3.53;100.00;94357.53;4993724;28;20228;-91
2021/03/12 09:46:11;;;;;;;15.47;13.73;;;;;;;4.03;100.00;94311.50;4993420;28;20192;-90
2021/03/12 09:48:38;;;;;;;16.60;13.73;;;;;;;4.36;100.00;94356.41;4993231;28;20204;-91
2021/03/12 09:51:06;;;;;;;16.17;13.40;;;;;;;4.18;100.00;94398.22;4993195;28;20200;-91
2021/03/12 09:53:34;;;;;;;14.37;11.80;;;;;;;3.89;100.00;94419.56;4993433;28;20240;-91
2021/03/12 09:56:01;;;;;;;18.37;14.50;;;;;;;3.44;100.00;94371.47;4993304;28;20200;-90
2021/03/12 09:58:29;;;;;;;14.00;11.00;;;;;;;3.15;100.00;94334.75;4993163;28;20263;-89
2021/03/12 10:01:11;;;;;;;69.47;45.03;;;;;;;3.41;100.00;94223.78;4993442;28;20204;-91
2021/03/12 10:03:38;;;;;;;20.67;16.53;;;;;;;3.27;100.00;94234.81;4993710;28;20185;-90
2021/03/12 10:06:09;;;;;;;64.10;40.97;;;;;;;3.15;100.00;94228.34;4993148;28;20196;-90
2021/03/12 10:09:07;;;;;;;52.47;36.73;;;;;;;3.10;100.00;94206.28;4993120;28;20215;-91
2021/03/12 10:11:45;;;;;;;53.50;35.47;;;;;;;2.90;100.00;94176.44;4993604;28;20661;-90
2021/03/12 10:14:35;;;;;;;28.43;16.93;;;;;;;2.57;100.00;94184.22;4997143;28;20223;-90
2021/03/12 10:17:13;;;;;;;24.60;17.73;;;;;;;2.74;100.00;94107.22;4996734;28;20193;-90
2021/03/12 10:19:46;;;;;;;23.17;17.63;;;;;;;2.62;100.00;94092.97;4997046;28;20215;-90
2021/03/12 10:22:19;;;;;;;15.57;12.90;;;;;;;2.74;100.00;94060.53;4996772;28;20192;-90
2021/03/12 10:24:47;;;;;;;16.00;12.07;;;;;;;2.43;100.00;94098.50;4996755;28;20196;-91
2021/03/12 10:27:22;;;;;;;18.67;13.27;;;;;;;2.38;100.00;94075.63;4996496;28;20212;-90
2021/03/12 10:29:51;;;;;;;15.90;13.43;;;;;;;2.67;100.00;94002.53;4996581;28;20192;-90
2021/03/12 10:32:18;;;;;;;15.70;13.43;;;;;;;2.72;100.00;94004.59;4996755;28;20208;-90
2021/03/12 10:34:46;;;;;;;15.00;12.97;;;;;;;2.71;100.00;94005.59;4996785;28;20219;-90
2021/03/12 10:37:14;;;;;;;16.83;13.03;;;;;;;2.76;100.00;93985.94;4996484;28;20270;-89
2021/03/12 10:39:43;;;;;;;16.40;12.33;;;;;;;2.84;100.00;94011.03;4996353;28;20215;-89
2021/03/12 10:42:10;;;;;;;13.87;11.87;;;;;;;2.97;100.00;94036.47;4996539;28;20195;-89
2021/03/12 10:44:56;;;;;;;17.20;12.13;;;;;;;3.14;100.00;94019.06;4996533;28;20196;-89
2021/03/12 10:47:23;;;;;;;16.77;13.10;;;;;;;3.21;100.00;94051.16;4996444;28;20218;-91
2021/03/12 10:49:50;;;;;;;17.93;13.83;;;;;;;3.04;100.00;94037.44;4996194;28;20335;-90
2021/03/12 10:52:28;;;;;;;13.50;12.00;;;;;;;3.12;100.00;94046.97;4996094;28;20240;-90
2021/03/12 10:54:56;;;;;;;12.93;11.27;;;;;;;3.34;100.00;94020.28;4996120;28;20192;-91
2021/03/12 10:57:40;;;;;;;15.30;10.77;;;;;;;3.27;100.00;94020.16;4995919;28;20228;-91
2021/03/12 11:00:15;;;;;;;15.10;12.17;;;;;;;3.33;100.00;94052.44;4995992;28;20196;-90
2021/03/12 11:02:42;;;;;;;18.73;13.60;;;;;;;3.53;100.00;94038.06;4979596;28;20188;-90
2021/03/12 11:05:12;;;;;;;15.93;13.13;;;;;;;3.25;100.00;94079.22;4996127;28;20207;-90
2021/03/12 11:07:39;;;;;;;13.10;10.20;;;;;;;4.03;100.00;94049.78;4996372;28;20626;-90
2021/03/12 11:10:07;;;;;;;16.97;11.63;;;;;;;4.00;100.00;94106.50;4996092;28;20204;-90
2021/03/12 11:12:41;;;;;;;13.53;10.70;;;;;;;5.12;100.00;94140.59;4995699;28;20203;-90
2021/03/12 11:15:11;;;;;;;31.50;20.03;;;;;;;5.28;100.00;94160.50;4995703;28;20184;-90
2021/03/12 11:17:44;;;;;;;13.00;9.43;;;;;;;6.00;100.00;94261.59;4995856;28;20220;-90
2021/03/12 11:20:13;;;;;;;13.17;10.73;;;;;;;6.63;100.00;94375.03;4995878;28;20204;-90
2021/03/12 11:22:40;;;;;;;13.67;9.87;;;;;;;7.35;100.00;94343.75;4995535;28;20680;-90
2021/03/12 11:25:08;;;;;;;11.70;10.50;;;;;;;7.96;100.00;94327.56;4994538;28;20216;-90
2021/03/12 11:27:36;;;;;;;11.77;9.83;;;;;;;6.59;100.00;94428.59;4995528;28;20223;-91
2021/03/12 11:30:07;;;;;;;13.33;9.30;;;;;;;5.31;100.00;94369.31;4995503;28;20279;-90
2021/03/12 11:32:35;;;;;;;10.37;8.63;;;;;;;5.30;100.00;94317.38;4995708;28;20243;-90
2021/03/12 11:35:02;;;;;;;11.90;8.60;;;;;;;5.26;100.00;94277.84;4995532;28;20740;-91